createdAt,value
2022-10-30T00:03:13.169Z,19.66
2022-10-30T00:08:19.399Z,18.96
2022-10-30T00:13:25.548Z,17.55
2022-10-30T00:18:31.824Z,20.05
2022-10-30T00:23:38.247Z,17.75
2022-10-30T00:28:44.542Z,16.12
2022-10-30T00:33:50.667Z,15.36
2022-10-30T00:38:56.800Z,17.24
2022-10-30T00:44:02.864Z,17.72
2022-10-30T00:49:09.019Z,18.35
2022-10-30T00:54:15.173Z,18.61
2022-10-30T00:59:21.327Z,18.79
2022-10-30T01:04:30.080Z,16.12
2022-10-30T01:09:33.137Z,17.45
2022-10-30T01:14:39.550Z,15.06
2022-10-30T01:19:45.874Z,15.62
2022-10-30T01:24:51.985Z,18.25
2022-10-30T01:29:58.622Z,17.54
2022-10-30T01:35:04.706Z,16.34
2022-10-30T01:40:11.064Z,19.22
2022-10-30T01:46:22.787Z,20.15
2022-10-30T01:51:28.977Z,17.33
2022-10-30T01:56:35.144Z,19.36
2022-10-30T02:01:41.479Z,20.27
2022-10-30T02:06:47.446Z,16.92
2022-10-30T02:11:53.855Z,17.37
2022-10-30T02:16:59.934Z,23.04
2022-10-30T02:22:06.222Z,18.80
2022-10-30T02:27:12.213Z,16.91
2022-10-30T02:32:18.705Z,16.33
2022-10-30T02:37:24.767Z,16.32
2022-10-30T02:42:31.071Z,17.77
2022-10-30T02:47:37.461Z,14.82
2022-10-30T02:52:43.650Z,16.10
2022-10-30T02:57:49.743Z,15.45
2022-10-30T03:02:55.992Z,15.39
2022-10-30T03:08:02.469Z,14.85
2022-10-30T03:13:07.814Z,16.82
2022-10-30T03:18:14.204Z,17.05
2022-10-30T03:23:20.464Z,17.17
2022-10-30T03:28:26.511Z,18.97
2022-10-30T03:33:33.133Z,15.63
2022-10-30T03:38:39.620Z,16.03
2022-10-30T03:43:45.920Z,17.08
2022-10-30T03:48:52.739Z,15.63
2022-10-30T03:53:58.897Z,17.68
2022-10-30T03:59:06.548Z,18.30
2022-10-30T04:04:12.697Z,17.42
2022-10-30T04:09:18.765Z,18.63
2022-10-30T04:14:25.053Z,18.36
2022-10-30T04:19:31.113Z,14.73
2022-10-30T04:24:37.433Z,13.01
2022-10-30T04:29:43.792Z,16.01
2022-10-30T04:34:49.977Z,13.40
2022-10-30T04:39:56.067Z,15.59
2022-10-30T04:45:04.899Z,17.18
2022-10-30T04:50:08.120Z,15.98
2022-10-30T04:55:14.288Z,16.98
2022-10-30T05:00:21.163Z,14.91
2022-10-30T05:05:27.341Z,15.42
2022-10-30T05:10:33.403Z,14.42
2022-10-30T05:15:39.661Z,13.91
2022-10-30T05:20:45.738Z,15.20
2022-10-30T05:25:52.059Z,15.29
2022-10-30T05:30:58.240Z,16.89
2022-10-30T05:36:04.430Z,16.84
2022-10-30T05:41:10.497Z,18.57
2022-10-30T05:46:16.835Z,15.16
2022-10-30T05:51:22.907Z,16.29
2022-10-30T05:56:29.249Z,18.79
2022-10-30T06:01:35.569Z,15.43
2022-10-30T06:06:42.058Z,13.93
2022-10-30T06:11:48.176Z,16.68
2022-10-30T06:16:54.364Z,13.15
2022-10-30T06:22:00.445Z,15.37
2022-10-30T06:27:06.696Z,15.25
2022-10-30T06:32:12.787Z,15.09
2022-10-30T06:37:19.028Z,14.44
2022-10-30T06:42:25.073Z,13.39
2022-10-30T06:47:31.230Z,16.02
2022-10-30T06:52:37.295Z,17.56
2022-10-30T06:57:43.991Z,20.22
2022-10-30T07:02:50.070Z,17.51
2022-10-30T07:07:57.095Z,17.61
2022-10-30T07:13:03.943Z,14.26
2022-10-30T07:18:10.115Z,17.85
2022-10-30T07:23:16.268Z,15.45
2022-10-30T07:28:22.468Z,15.12
2022-10-30T07:33:28.910Z,17.42
2022-10-30T07:38:35.295Z,21.03
2022-10-30T07:43:41.391Z,22.11
2022-10-30T07:48:47.583Z,19.84
2022-10-30T07:53:53.642Z,24.13
2022-10-30T07:58:59.885Z,23.12
2022-10-30T08:04:06.021Z,20.63
2022-10-30T08:09:12.281Z,20.90
2022-10-30T08:14:18.363Z,19.03
2022-10-30T08:19:24.631Z,20.13
2022-10-30T08:24:30.726Z,18.66
2022-10-30T08:29:36.881Z,18.67
2022-10-30T08:34:42.981Z,20.03
2022-10-30T08:39:49.974Z,24.09
2022-10-30T08:44:56.036Z,23.10
2022-10-30T08:50:02.231Z,20.73
2022-10-30T08:55:08.330Z,18.67
2022-10-30T09:00:14.547Z,20.16
2022-10-30T09:05:20.697Z,23.00
2022-10-30T09:10:26.915Z,20.37
2022-10-30T09:15:32.965Z,20.38
2022-10-30T09:20:39.177Z,17.75
2022-10-30T09:25:45.324Z,22.39
2022-10-30T09:30:53.818Z,19.70
2022-10-30T09:35:58.308Z,17.59
2022-10-30T09:41:04.523Z,19.42
2022-10-30T09:46:10.607Z,19.96
2022-10-30T09:51:16.967Z,17.79
2022-10-30T09:56:23.141Z,19.08
2022-10-30T10:01:29.473Z,20.84
2022-10-30T10:06:35.463Z,18.91
2022-10-30T10:11:41.688Z,16.68
2022-10-30T10:16:47.753Z,19.10
2022-10-30T10:21:53.879Z,24.97
2022-10-30T10:27:01.026Z,20.65
2022-10-30T10:32:07.186Z,23.40
2022-10-30T10:37:13.247Z,19.04
2022-10-30T10:42:19.407Z,21.51
2022-10-30T10:47:25.893Z,20.42
2022-10-30T10:52:32.144Z,20.57
2022-10-30T10:57:38.296Z,19.74
2022-10-30T11:02:44.913Z,15.99
2022-10-30T11:07:51.048Z,20.00
2022-10-30T11:12:57.593Z,16.81
2022-10-30T11:18:02.980Z,16.11
2022-10-30T11:23:09.090Z,19.88
2022-10-30T11:28:15.165Z,17.47
2022-10-30T11:33:21.429Z,19.14
2022-10-30T11:38:27.538Z,16.76
2022-10-30T11:43:33.702Z,16.93
2022-10-30T11:48:39.772Z,17.09
2022-10-30T11:53:46.028Z,15.92
2022-10-30T11:58:52.055Z,16.57
2022-10-30T12:03:58.209Z,16.94
2022-10-30T12:09:04.252Z,16.78
2022-10-30T12:14:10.402Z,14.65
2022-10-30T12:19:16.495Z,15.61
2022-10-30T12:24:22.664Z,15.96
2022-10-30T12:29:41.685Z,16.93
2022-10-30T12:34:34.543Z,15.94
2022-10-30T12:39:40.600Z,14.56
2022-10-30T12:44:47.099Z,16.59
2022-10-30T12:49:53.237Z,12.70
2022-10-30T12:54:59.338Z,15.93
2022-10-30T13:00:05.800Z,15.63
2022-10-30T13:05:11.977Z,13.52
2022-10-30T13:10:18.014Z,14.17
2022-10-30T13:15:24.397Z,16.00
2022-10-30T13:20:30.435Z,15.74
2022-10-30T13:25:36.599Z,17.08
2022-10-30T13:30:42.676Z,14.79
2022-10-30T13:35:48.877Z,14.41
2022-10-30T13:40:54.970Z,15.66
2022-10-30T13:46:01.214Z,16.57
2022-10-30T13:51:07.262Z,17.34
2022-10-30T13:56:13.436Z,19.52
2022-10-30T14:01:19.603Z,17.57
2022-10-30T14:06:25.646Z,16.08
2022-10-30T14:11:31.693Z,14.60
2022-10-30T14:16:37.829Z,14.43
2022-10-30T14:21:43.864Z,14.89
2022-10-30T14:26:52.764Z,20.47
2022-10-30T14:31:55.583Z,19.52
2022-10-30T14:37:01.729Z,19.37
2022-10-30T14:42:07.783Z,14.00
2022-10-30T14:47:13.997Z,15.03
2022-10-30T14:52:20.771Z,16.87
2022-10-30T14:57:26.893Z,15.05
2022-10-30T15:02:33.152Z,21.65
2022-10-30T15:07:39.254Z,15.85
2022-10-30T15:12:45.665Z,18.21
2022-10-30T15:17:51.838Z,14.83
2022-10-30T15:22:58.312Z,18.53
2022-10-30T15:28:03.757Z,16.58
2022-10-30T15:33:09.789Z,16.47
2022-10-30T15:38:16.337Z,19.74
2022-10-30T15:43:22.451Z,15.31
2022-10-30T15:48:28.678Z,17.37
2022-10-30T15:53:34.793Z,15.35
2022-10-30T15:58:40.945Z,14.26
2022-10-30T16:03:48.374Z,18.02
2022-10-30T16:08:52.811Z,17.03
2022-10-30T16:13:58.859Z,16.38
2022-10-30T16:19:05.071Z,17.30
2022-10-30T16:24:11.307Z,18.40
2022-10-30T16:29:17.494Z,16.25
2022-10-30T16:34:23.591Z,20.35
2022-10-30T16:39:29.816Z,17.22
2022-10-30T16:44:35.911Z,14.65
2022-10-30T16:50:00.830Z,16.73
2022-10-30T16:55:06.978Z,17.26
2022-10-30T17:00:13.363Z,26.62
2022-10-30T17:05:19.456Z,30.11
2022-10-30T17:10:26.054Z,21.63
2022-10-30T17:15:32.140Z,21.29
2022-10-30T17:20:38.386Z,21.08
2022-10-30T17:25:44.432Z,20.12
2022-10-30T17:30:50.591Z,20.16
2022-10-30T17:35:56.701Z,19.28
2022-10-30T17:41:02.871Z,19.06
2022-10-30T17:46:08.906Z,17.95
2022-10-30T17:51:15.704Z,22.20
2022-10-30T17:56:21.931Z,20.60
2022-10-30T18:01:28.468Z,18.79
2022-10-30T18:06:34.504Z,21.47
2022-10-30T18:11:40.770Z,21.45
2022-10-30T18:16:50.134Z,20.55
2022-10-30T18:21:52.619Z,24.59
2022-10-30T18:26:58.805Z,23.15
2022-10-30T18:32:09.374Z,25.19
2022-10-30T18:37:10.589Z,25.35
2022-10-30T18:42:16.743Z,25.94
2022-10-30T18:47:22.813Z,25.01
2022-10-30T18:52:28.965Z,28.01
2022-10-30T18:57:35.098Z,28.74
2022-10-30T19:02:41.430Z,28.52
2022-10-30T19:07:47.364Z,27.40
2022-10-30T19:13:11.950Z,28.39
2022-10-30T19:17:59.336Z,24.11
2022-10-30T19:23:05.397Z,26.00
2022-10-30T19:28:11.617Z,25.01
2022-10-30T19:33:18.533Z,23.65
2022-10-30T19:38:24.591Z,29.65
2022-10-30T19:43:30.843Z,26.83
2022-10-30T19:48:57.788Z,27.37
2022-10-30T19:53:42.683Z,31.56
2022-10-30T19:58:48.742Z,26.37
2022-10-30T20:03:55.026Z,30.01
2022-10-30T20:09:01.087Z,29.44
2022-10-30T20:14:07.307Z,29.32
2022-10-30T20:19:31.097Z,32.78
2022-10-30T20:24:22.282Z,27.64
2022-10-30T20:29:28.464Z,29.32
2022-10-30T20:34:35.072Z,27.75
2022-10-30T20:39:41.147Z,28.05
2022-10-30T20:44:47.434Z,29.51
2022-10-30T20:49:53.495Z,28.82
2022-10-30T20:54:59.687Z,28.25
2022-10-30T21:00:05.703Z,31.63
2022-10-30T21:10:18.411Z,29.40
2022-10-30T21:15:24.898Z,31.84
2022-10-30T21:20:31.035Z,27.13
2022-10-30T21:25:37.628Z,29.36
2022-10-30T21:30:46.677Z,29.76
2022-10-30T21:35:52.865Z,27.36
2022-10-30T21:40:58.938Z,32.62
2022-10-30T21:46:06.867Z,32.68
2022-10-30T21:51:12.932Z,33.41
2022-10-30T21:56:19.058Z,29.39
2022-10-30T22:01:25.305Z,34.33
2022-10-30T22:06:31.313Z,31.81
2022-10-30T22:11:37.377Z,32.72
2022-10-30T22:16:43.541Z,29.06
2022-10-30T22:21:49.609Z,30.52
2022-10-30T22:26:56.093Z,31.58
2022-10-30T22:32:02.172Z,31.45
2022-10-30T22:37:08.339Z,27.40
2022-10-30T22:42:14.415Z,30.71
2022-10-30T22:47:21.154Z,33.57
2022-10-30T22:52:27.195Z,33.24
2022-10-30T22:57:33.410Z,32.88
2022-10-30T23:02:39.447Z,31.50
2022-10-30T23:07:45.611Z,34.08
2022-10-30T23:12:51.667Z,32.54
2022-10-30T23:17:58.218Z,32.62
2022-10-30T23:23:03.443Z,33.56
2022-10-30T23:28:09.725Z,30.66
2022-10-30T23:33:15.722Z,34.83
2022-10-30T23:38:21.849Z,36.28
2022-10-30T23:43:27.916Z,29.97
2022-10-30T23:48:34.795Z,32.29
2022-10-30T23:53:40.855Z,31.91
2022-10-30T23:58:47.008Z,29.57
